Time;durP1;ratioP1;P1;durP2;ratioP2;P2;SDS_P1;SDS_P2;PMS_P1;PMS_P2;Temp;Humidity;BMP_temperature;BMP_pressure;BME280_temperature;BME280_humidity;BME280_pressure;Samples;Min_cycle;Max_cycle;Signal;HPM_P1;HPM_P2
2023/01/24 00:00:27;;;;;;;;;;;8.00;99.90;;;;;;5054863;28;20090;-68
2023/01/24 00:02:53;;;;;;;;;;;8.00;99.90;;;;;;5071438;28;20317;-68
2023/01/24 00:05:20;;;;;;;;;;;7.90;99.90;;;;;;5074414;28;19912;-67
2023/01/24 00:07:46;;;;;;;;;;;7.80;99.90;;;;;;5074699;28;19912;-69
2023/01/24 00:10:12;;;;;;;;;;;7.60;99.90;;;;;;5074361;28;20267;-69
2023/01/24 00:12:38;;;;;;;;;;;7.60;99.90;;;;;;5074431;28;19954;-69
2023/01/24 00:15:04;;;;;;;;;;;7.50;99.90;;;;;;5062585;28;19905;-70
2023/01/24 00:17:30;;;;;;;;;;;7.60;99.90;;;;;;5054464;28;19927;-70
2023/01/24 00:19:55;;;;;;;;;;;7.70;99.90;;;;;;5054888;28;20217;-70
2023/01/24 00:22:21;;;;;;;;;;;7.70;99.90;;;;;;5054263;28;19956;-70
2023/01/24 00:24:48;;;;;;;;;;;7.60;99.90;;;;;;5057645;28;19904;-68
2023/01/24 00:27:14;;;;;;;;;;;7.60;99.90;;;;;;5074106;28;19931;-69
2023/01/24 00:29:40;;;;;;;;;;;7.60;99.90;;;;;;5074220;28;19905;-70
2023/01/24 00:32:06;;;;;;;;;;;7.50;99.90;;;;;;5075876;28;19915;-70
2023/01/24 00:34:32;;;;;;;;;;;7.50;99.90;;;;;;5094690;28;20326;-70
2023/01/24 00:36:58;;;;;;;;;;;7.50;99.90;;;;;;5094269;28;19904;-70
2023/01/24 00:39:25;;;;;;;;;;;7.50;99.90;;;;;;5076118;28;20002;-70
2023/01/24 00:41:51;;;;;;;;;;;7.40;99.90;;;;;;5094051;28;20324;-70
2023/01/24 00:44:17;;;;;;;;;;;7.40;99.90;;;;;;5087359;28;19905;-71
2023/01/24 00:46:42;;;;;;;;;;;7.40;99.90;;;;;;5074016;28;20057;-68
2023/01/24 00:49:08;;;;;;;;;;;7.40;99.90;;;;;;5058312;28;20055;-69
2023/01/24 00:51:34;;;;;;;;;;;7.40;99.90;;;;;;5054216;28;19915;-68
2023/01/24 00:54:00;;;;;;;;;;;7.40;99.90;;;;;;5053649;28;20283;-69
2023/01/24 00:56:27;;;;;;;;;;;7.30;99.90;;;;;;5053375;28;19913;-69
2023/01/24 00:58:53;;;;;;;;;;;7.30;99.90;;;;;;5053711;28;19905;-69
2023/01/24 01:01:18;;;;;;;;;;;7.20;99.90;;;;;;5053654;28;19905;-69
2023/01/24 01:03:44;;;;;;;;;;;7.30;99.90;;;;;;5053897;28;19928;-68
2023/01/24 01:06:12;;;;;;;;;;;7.20;99.90;;;;;;5053667;28;19932;-69
2023/01/24 01:08:38;;;;;;;;;;;7.20;99.90;;;;;;5053555;28;20410;-69
2023/01/24 01:11:04;;;;;;;;;;;7.20;99.90;;;;;;5053352;28;19905;-69
2023/01/24 01:13:30;;;;;;;;;;;7.10;99.90;;;;;;5053739;28;19927;-69
2023/01/24 01:16:00;;;;;;;;;;;7.10;99.90;;;;;;5072451;28;20383;-69
2023/01/24 01:18:27;;;;;;;;;;;7.00;99.90;;;;;;5073079;28;19912;-69
2023/01/24 01:20:53;;;;;;;;;;;7.00;99.90;;;;;;5073412;28;19904;-69
2023/01/24 01:23:19;;;;;;;;;;;6.90;99.90;;;;;;5073343;28;19904;-69
2023/01/24 01:25:44;;;;;;;;;;;6.90;99.90;;;;;;5072782;28;20011;-69
2023/01/24 01:28:10;;;;;;;;;;;7.00;99.90;;;;;;5073431;28;20341;-68
2023/01/24 01:30:36;;;;;;;;;;;6.90;99.90;;;;;;5073075;28;19912;-69
2023/01/24 01:33:02;;;;;;;;;;;7.00;99.90;;;;;;5072814;28;19922;-68
2023/01/24 01:35:27;;;;;;;;;;;7.00;99.90;;;;;;5073275;28;20279;-69
2023/01/24 01:37:53;;;;;;;;;;;7.00;99.90;;;;;;5073070;28;20102;-68
2023/01/24 01:40:20;;;;;;;;;;;7.00;99.90;;;;;;5073016;28;19983;-69
2023/01/24 01:42:53;;;;;;;;;;;7.00;99.90;;;;;;5072759;28;19908;-69
2023/01/24 01:45:34;;;;;;;;;;;7.00;99.90;;;;;;5058593;28;19904;-70
2023/01/24 01:48:01;;;;;;;;;;;7.10;99.90;;;;;;5052693;28;19963;-69
2023/01/24 01:50:34;;;;;;;;;;;7.10;99.90;;;;;;5052676;28;19971;-69
2023/01/24 01:53:00;;;;;;;;;;;7.10;99.90;;;;;;5052699;28;19912;-69
2023/01/24 01:55:30;;;;;;;;;;;7.10;99.90;;;;;;5051963;28;19904;-67
2023/01/24 01:57:56;;;;;;;;;;;7.10;99.90;;;;;;5051137;28;20272;-69
2023/01/24 02:00:27;;;;;;;;;;;7.10;99.90;;;;;;5052606;28;19995;-69
2023/01/24 02:03:37;;;;;;;;;;;7.10;99.90;;;;;;5052696;28;19905;-69
2023/01/24 02:05:45;;;;;;;;;;;7.10;99.90;;;;;;5052658;28;19936;-68
2023/01/24 02:08:13;;;;;;;;;;;7.10;99.90;;;;;;5052550;28;19909;-69
2023/01/24 02:13:24;;;;;;;;;;;7.10;99.90;;;;;;5052247;28;20276;-69
2023/01/24 02:16:03;;;;;;;;;;;7.00;99.90;;;;;;5052169;28;19921;-69
2023/01/24 02:18:30;;;;;;;;;;;7.00;99.90;;;;;;5052325;28;20329;-69
2023/01/24 02:20:56;;;;;;;;;;;7.00;99.90;;;;;;5052102;28;20388;-69
2023/01/24 02:23:31;;;;;;;;;;;7.10;99.90;;;;;;5052354;28;19908;-69
2023/01/24 02:25:59;;;;;;;;;;;7.20;99.90;;;;;;5052048;28;19982;-69
2023/01/24 02:28:26;;;;;;;;;;;7.30;99.90;;;;;;5051965;28;20304;-69
2023/01/24 02:30:55;;;;;;;;;;;7.30;99.90;;;;;;5052336;28;20444;-69
2023/01/24 02:33:21;;;;;;;;;;;7.30;99.90;;;;;;5065434;28;19920;-69
2023/01/24 02:35:48;;;;;;;;;;;7.30;99.90;;;;;;5072406;28;19911;-68
2023/01/24 02:38:19;;;;;;;;;;;7.20;99.90;;;;;;5072060;28;19943;-69
2023/01/24 02:40:45;;;;;;;;;;;7.20;99.90;;;;;;5071716;28;19924;-69
2023/01/24 02:43:12;;;;;;;;;;;7.20;99.90;;;;;;5071914;28;20028;-69
2023/01/24 02:45:38;;;;;;;;;;;7.20;99.90;;;;;;5053792;28;19930;-70
2023/01/24 02:48:04;;;;;;;;;;;7.30;99.90;;;;;;5072192;28;20356;-69
2023/01/24 02:53:29;;;;;;;;;;;7.30;99.90;;;;;;5053599;28;19958;-70
2023/01/24 02:53:31;;;;;;;;;;;7.30;99.90;;;;;;5071718;28;19946;-68
2023/01/24 02:58:42;;;;;;;;;;;7.30;99.90;;;;;;5072303;28;20362;-67
2023/01/24 03:01:08;;;;;;;;;;;7.30;99.90;;;;;;5054308;28;19943;-69
2023/01/24 03:03:34;;;;;;;;;;;7.40;99.90;;;;;;5071837;28;19940;-69
2023/01/24 03:06:01;;;;;;;;;;;7.40;99.90;;;;;;5071902;28;19962;-69
2023/01/24 03:08:28;;;;;;;;;;;7.30;99.90;;;;;;5075244;28;19919;-69
2023/01/24 03:10:54;;;;;;;;;;;7.30;99.90;;;;;;5075349;28;19927;-69
2023/01/24 03:35:16;;;;;;;;;;;7.00;99.90;;;;;;5054662;28;20313;-69
2023/01/24 03:40:28;;;;;;;;;;;6.90;99.90;;;;;;5054772;28;19916;-69
2023/01/24 03:42:54;;;;;;;;;;;6.90;99.90;;;;;;5054272;28;19905;-69
2023/01/24 03:45:21;;;;;;;;;;;6.90;99.90;;;;;;5054305;28;20023;-69
2023/01/24 03:47:58;;;;;;;;;;;6.90;99.90;;;;;;5054051;28;20295;-69
2023/01/24 03:53:10;;;;;;;;;;;7.00;99.90;;;;;;5054445;28;19927;-69
2023/01/24 03:55:36;;;;;;;;;;;7.00;99.90;;;;;;5054589;28;20019;-69
2023/01/24 03:58:02;;;;;;;;;;;7.00;99.90;;;;;;5055353;28;20406;-70
2023/01/24 04:00:28;;;;;;;;;;;7.00;99.90;;;;;;5055551;28;19967;-69
2023/01/24 04:02:55;;;;;;;;;;;7.00;99.90;;;;;;5055299;28;20003;-69
2023/01/24 04:05:22;;;;;;;;;;;6.90;99.90;;;;;;5053408;28;19905;-69
2023/01/24 04:07:49;;;;;;;;;;;7.00;99.90;;;;;;5055079;28;19913;-69
2023/01/24 04:10:15;;;;;;;;;;;7.00;99.90;;;;;;5055065;28;19950;-70
2023/01/24 04:12:42;;;;;;;;;;;7.00;99.90;;;;;;5055465;28;19904;-68
2023/01/24 04:15:08;;;;;;;;;;;7.10;99.90;;;;;;5054962;28;19991;-69
2023/01/24 04:17:34;;;;;;;;;;;7.10;99.90;;;;;;5054540;28;19904;-69
2023/01/24 04:19:59;;;;;;;;;;;7.20;99.90;;;;;;5054848;28;19927;-69
2023/01/24 04:22:25;;;;;;;;;;;7.10;99.90;;;;;;5054840;28;19909;-69
2023/01/24 04:24:51;;;;;;;;;;;7.10;99.90;;;;;;5055457;28;19954;-69
2023/01/24 04:27:17;;;;;;;;;;;7.20;99.90;;;;;;5054704;28;19923;-69
2023/01/24 04:29:42;;;;;;;;;;;7.20;99.90;;;;;;5054979;28;19995;-69
2023/01/24 04:32:08;;;;;;;;;;;7.20;99.90;;;;;;5055157;28;19917;-69
2023/01/24 04:34:34;;;;;;;;;;;7.20;99.90;;;;;;5055245;28;19905;-69
2023/01/24 04:37:00;;;;;;;;;;;7.20;99.90;;;;;;5054752;28;20400;-69
2023/01/24 04:39:27;;;;;;;;;;;7.20;99.90;;;;;;5054369;28;19916;-69
2023/01/24 04:41:52;;;;;;;;;;;7.30;99.90;;;;;;5053801;28;19912;-70
2023/01/24 04:44:18;;;;;;;;;;;7.40;99.90;;;;;;5054925;28;19908;-69
2023/01/24 04:46:44;;;;;;;;;;;7.40;99.90;;;;;;5054618;28;19921;-69
2023/01/24 04:49:10;;;;;;;;;;;7.40;99.90;;;;;;5055072;28;19976;-69
2023/01/24 04:51:36;;;;;;;;;;;7.40;99.90;;;;;;5054541;28;19908;-70
2023/01/24 04:54:02;;;;;;;;;;;7.40;99.90;;;;;;5054710;28;19905;-70
2023/01/24 04:56:32;;;;;;;;;;;7.50;99.90;;;;;;5052943;28;19916;-69
2023/01/24 04:58:58;;;;;;;;;;;7.60;99.90;;;;;;5054962;28;19904;-70
2023/01/24 05:01:24;;;;;;;;;;;7.70;99.90;;;;;;5054453;28;19904;-69
2023/01/24 05:03:50;;;;;;;;;;;7.80;99.90;;;;;;5054525;28;19905;-70
2023/01/24 05:06:15;;;;;;;;;;;7.70;99.90;;;;;;5054677;28;20003;-69
2023/01/24 05:08:41;;;;;;;;;;;7.80;99.90;;;;;;5054181;28;19909;-66
2023/01/24 05:11:07;;;;;;;;;;;7.90;99.90;;;;;;5054368;28;19905;-70
2023/01/24 05:13:34;;;;;;;;;;;8.00;99.90;;;;;;5052704;28;19911;-70
2023/01/24 05:16:00;;;;;;;;;;;8.10;99.90;;;;;;5053963;28;19905;-70
2023/01/24 05:18:26;;;;;;;;;;;8.20;99.90;;;;;;5053297;28;19912;-69
2023/01/24 05:20:52;;;;;;;;;;;8.30;99.90;;;;;;5054714;28;20272;-65
2023/01/24 05:23:18;;;;;;;;;;;8.30;99.90;;;;;;5055138;28;19980;-69
2023/01/24 05:25:44;;;;;;;;;;;8.30;99.90;;;;;;5067088;28;19952;-72
2023/01/24 05:28:10;;;;;;;;;;;8.10;99.90;;;;;;5073736;28;19904;-72
2023/01/24 05:30:35;;;;;;;;;;;7.90;99.90;;;;;;5072894;28;19908;-69
2023/01/24 05:33:01;;;;;;;;;;;7.80;99.90;;;;;;5085155;28;20368;-69
2023/01/24 05:35:28;;;;;;;;;;;7.70;99.90;;;;;;5094508;28;19908;-70
2023/01/24 05:37:54;;;;;;;;;;;7.70;99.90;;;;;;5094352;28;20053;-70
2023/01/24 05:40:19;;;;;;;;;;;7.60;99.90;;;;;;5086168;28;20335;-67
2023/01/24 05:42:45;;;;;;;;;;;7.50;99.90;;;;;;5076425;28;19915;-69
2023/01/24 05:45:11;;;;;;;;;;;7.40;99.90;;;;;;5074548;28;19904;-70
2023/01/24 05:47:37;;;;;;;;;;;7.40;99.90;;;;;;5087365;28;19912;-70
2023/01/24 05:50:03;;;;;;;;;;;7.30;99.90;;;;;;5074170;28;20360;-69
2023/01/24 05:52:29;;;;;;;;;;;7.30;99.90;;;;;;5073842;28;19904;-69
2023/01/24 05:54:55;;;;;;;;;;;7.20;99.90;;;;;;5073843;28;19915;-70
2023/01/24 05:57:21;;;;;;;;;;;7.10;99.90;;;;;;5055837;28;19927;-71
2023/01/24 05:59:48;;;;;;;;;;;7.20;99.90;;;;;;5074376;28;19908;-65
2023/01/24 06:02:14;;;;;;;;;;;7.10;99.90;;;;;;5092002;28;19938;-70
2023/01/24 06:04:39;;;;;;;;;;;7.00;99.90;;;;;;5093965;28;20295;-69
2023/01/24 06:07:05;;;;;;;;;;;7.00;99.90;;;;;;5093844;28;20026;-69
2023/01/24 06:09:42;;;;;;;;;;;6.90;99.90;;;;;;5093987;28;19904;-68
2023/01/24 06:12:08;;;;;;;;;;;6.90;99.90;;;;;;5093684;28;19911;-69
2023/01/24 06:14:34;;;;;;;;;;;6.90;99.90;;;;;;5088138;28;20301;-70
2023/01/24 06:16:59;;;;;;;;;;;6.90;99.90;;;;;;5094428;28;19911;-69
2023/01/24 06:19:27;;;;;;;;;;;6.90;99.90;;;;;;5094111;28;20044;-68
2023/01/24 06:22:11;;;;;;;;;;;6.90;99.90;;;;;;5093821;28;19911;-69
2023/01/24 06:24:37;;;;;;;;;;;7.00;99.90;;;;;;5093951;28;19988;-69
2023/01/24 06:27:04;;;;;;;;;;;7.00;99.90;;;;;;5093401;28;19938;-69
2023/01/24 06:29:30;;;;;;;;;;;7.00;99.90;;;;;;5075316;28;19905;-71
2023/01/24 06:32:22;;;;;;;;;;;6.90;99.90;;;;;;5072487;28;19908;-69
2023/01/24 06:35:11;;;;;;;;;;;7.00;99.90;;;;;;5069631;28;20390;-70
2023/01/24 06:37:40;;;;;;;;;;;7.40;99.90;;;;;;5073356;28;20069;-69
2023/01/24 06:40:07;;;;;;;;;;;7.80;99.90;;;;;;5072603;28;19915;-69
2023/01/24 06:42:33;;;;;;;;;;;8.20;99.90;;;;;;5072430;28;19905;-70
2023/01/24 06:44:59;;;;;;;;;;;8.50;99.90;;;;;;5043330;28;19905;-70
2023/01/24 06:47:27;;;;;;;;;;;8.70;99.90;;;;;;5065483;28;20014;-70
2023/01/24 06:49:53;;;;;;;;;;;8.90;99.90;;;;;;5072853;28;19951;-69
2023/01/24 06:52:19;;;;;;;;;;;9.20;99.90;;;;;;5072413;28;19927;-70
2023/01/24 06:54:45;;;;;;;;;;;9.40;99.90;;;;;;5071922;28;20352;-71
2023/01/24 06:57:11;;;;;;;;;;;9.50;99.90;;;;;;5071481;28;19917;-70
2023/01/24 06:59:37;;;;;;;;;;;9.90;99.90;;;;;;5070386;28;19908;-69
2023/01/24 07:02:03;;;;;;;;;;;10.10;99.90;;;;;;5072780;28;20257;-71
2023/01/24 07:04:29;;;;;;;;;;;10.40;99.90;;;;;;5072290;28;19911;-70
2023/01/24 07:06:54;;;;;;;;;;;10.70;99.90;;;;;;5072411;28;20405;-68
2023/01/24 07:09:20;;;;;;;;;;;10.90;99.90;;;;;;5072241;28;19916;-70
2023/01/24 07:11:52;;;;;;;;;;;11.10;99.90;;;;;;5071608;28;19913;-71
2023/01/24 07:14:18;;;;;;;;;;;10.90;99.90;;;;;;5066703;28;20276;-70
2023/01/24 07:16:44;;;;;;;;;;;11.40;99.90;;;;;;5063529;28;20334;-70
2023/01/24 07:19:14;;;;;;;;;;;11.00;99.90;;;;;;5054406;28;19999;-71
2023/01/24 07:21:40;;;;;;;;;;;10.80;99.90;;;;;;5072544;28;19904;-67
2023/01/24 07:24:12;;;;;;;;;;;10.70;99.90;;;;;;5072391;28;19998;-69
2023/01/24 07:26:39;;;;;;;;;;;10.60;99.90;;;;;;5072143;28;20007;-71
2023/01/24 07:29:05;;;;;;;;;;;10.60;99.90;;;;;;5072413;28;19904;-69
2023/01/24 07:31:31;;;;;;;;;;;10.50;99.90;;;;;;5072092;28;19919;-69
2023/01/24 07:33:57;;;;;;;;;;;10.70;99.90;;;;;;5071550;28;20015;-69
2023/01/24 07:36:22;;;;;;;;;;;11.20;99.90;;;;;;5072033;28;20269;-71
2023/01/24 07:38:48;;;;;;;;;;;11.40;99.90;;;;;;5071986;28;19946;-70
2023/01/24 07:41:14;;;;;;;;;;;11.30;99.90;;;;;;5071652;28;19904;-69
2023/01/24 07:43:42;;;;;;;;;;;11.20;99.90;;;;;;5071494;28;19920;-69
2023/01/24 07:46:09;;;;;;;;;;;10.90;99.90;;;;;;5052379;28;19912;-70
2023/01/24 07:48:35;;;;;;;;;;;10.50;99.90;;;;;;5052179;28;19904;-74
2023/01/24 07:51:00;;;;;;;;;;;10.20;99.90;;;;;;5051876;28;20283;-70
2023/01/24 07:53:26;;;;;;;;;;;10.00;99.90;;;;;;5053551;28;19911;-69
2023/01/24 07:55:58;;;;;;;;;;;10.00;99.90;;;;;;5055757;28;19905;-72
2023/01/24 07:58:24;;;;;;;;;;;10.20;99.90;;;;;;5056123;28;19905;-75
2023/01/24 08:00:50;;;;;;;;;;;10.20;99.90;;;;;;5055617;28;19905;-75
2023/01/24 08:03:16;;;;;;;;;;;10.20;99.90;;;;;;5056023;28;20241;-74
2023/01/24 08:05:41;;;;;;;;;;;10.10;99.90;;;;;;5055559;28;19949;-74
2023/01/24 08:08:07;;;;;;;;;;;10.20;99.90;;;;;;5055472;28;19956;-75
2023/01/24 08:10:33;;;;;;;;;;;10.20;99.90;;;;;;5055514;28;20303;-76
2023/01/24 08:12:59;;;;;;;;;;;10.20;99.90;;;;;;5055207;28;19904;-75
2023/01/24 08:15:26;;;;;;;;;;;10.10;99.90;;;;;;5055466;28;19959;-75
2023/01/24 08:17:52;;;;;;;;;;;10.10;99.90;;;;;;5055402;28;19966;-75
2023/01/24 08:20:17;;;;;;;;;;;10.00;99.90;;;;;;5055835;28;20014;-76
2023/01/24 08:22:43;;;;;;;;;;;9.90;99.90;;;;;;5055387;28;19905;-77
2023/01/24 08:25:09;;;;;;;;;;;9.90;99.90;;;;;;5055124;28;19975;-75
2023/01/24 08:27:35;;;;;;;;;;;9.90;99.90;;;;;;5055158;28;19913;-76
2023/01/24 08:30:02;;;;;;;;;;;10.10;99.90;;;;;;5055349;28;20004;-76
2023/01/24 08:32:28;;;;;;;;;;;10.20;99.90;;;;;;5060551;28;19912;-75
2023/01/24 08:34:54;;;;;;;;;;;10.30;99.90;;;;;;5074648;28;19919;-76
2023/01/24 08:37:20;;;;;;;;;;;10.40;99.90;;;;;;5075082;28;19908;-76
2023/01/24 08:39:47;;;;;;;;;;;10.40;99.90;;;;;;5075132;28;20279;-74
2023/01/24 08:42:13;;;;;;;;;;;10.50;99.90;;;;;;5074640;28;19995;-75
2023/01/24 08:44:38;;;;;;;;;;;10.50;99.90;;;;;;5074858;28;19995;-75
2023/01/24 08:47:05;;;;;;;;;;;10.60;99.90;;;;;;5074836;28;19967;-75
2023/01/24 08:49:31;;;;;;;;;;;10.70;99.90;;;;;;5074668;28;19956;-75
2023/01/24 08:51:59;;;;;;;;;;;10.60;99.90;;;;;;5056115;28;19904;-76
2023/01/24 08:54:30;;;;;;;;;;;10.60;99.90;;;;;;5074817;28;19911;-75
2023/01/24 08:56:56;;;;;;;;;;;10.60;99.90;;;;;;5073732;28;19908;-75
2023/01/24 08:59:22;;;;;;;;;;;10.60;99.90;;;;;;5055813;28;19916;-76
2023/01/24 09:01:47;;;;;;;;;;;10.50;99.90;;;;;;5073937;28;20363;-74
2023/01/24 09:04:16;;;;;;;;;;;10.60;99.90;;;;;;5073080;28;19952;-75
2023/01/24 09:06:41;;;;;;;;;;;10.50;99.90;;;;;;5073584;28;19919;-69
2023/01/24 09:09:07;;;;;;;;;;;10.50;99.90;;;;;;5074101;28;19976;-74
2023/01/24 09:11:33;;;;;;;;;;;10.50;99.90;;;;;;5072268;28;19905;-74
2023/01/24 09:14:00;;;;;;;;;;;10.60;99.90;;;;;;5073679;28;20382;-76
2023/01/24 09:16:27;;;;;;;;;;;10.60;99.90;;;;;;5073748;28;20492;-75
2023/01/24 09:18:53;;;;;;;;;;;10.60;99.90;;;;;;5074358;28;19948;-74
2023/01/24 09:21:19;;;;;;;;;;;10.60;99.90;;;;;;5074119;28;19904;-74
2023/01/24 09:23:47;;;;;;;;;;;10.60;99.90;;;;;;5074004;28;19995;-74
2023/01/24 09:26:12;;;;;;;;;;;10.60;99.90;;;;;;5073697;28;19908;-75
2023/01/24 09:28:39;;;;;;;;;;;10.50;99.90;;;;;;5055977;28;19970;-74
2023/01/24 09:31:07;;;;;;;;;;;10.60;99.90;;;;;;5055819;28;19904;-76
2023/01/24 09:33:32;;;;;;;;;;;10.70;99.90;;;;;;5073502;28;20317;-75
2023/01/24 09:35:59;;;;;;;;;;;10.60;99.90;;;;;;5073826;28;19909;-75
2023/01/24 09:38:27;;;;;;;;;;;10.70;99.90;;;;;;5073536;28;19905;-74
2023/01/24 09:41:02;;;;;;;;;;;10.70;99.90;;;;;;5055538;28;19905;-74
2023/01/24 09:43:38;;;;;;;;;;;10.50;99.90;;;;;;5074000;28;19999;-75
2023/01/24 09:46:22;;;;;;;;;;;10.60;99.90;;;;;;5053447;28;19924;-74
2023/01/24 09:48:54;;;;;;;;;;;10.60;99.90;;;;;;5053741;28;19984;-74
2023/01/24 09:51:25;;;;;;;;;;;10.60;99.90;;;;;;5053054;28;20004;-75
2023/01/24 09:53:55;;;;;;;;;;;10.70;99.90;;;;;;5053348;28;19911;-74
2023/01/24 09:56:38;;;;;;;;;;;10.70;99.90;;;;;;5052792;28;19912;-74
2023/01/24 09:59:29;;;;;;;;;;;10.80;99.90;;;;;;5053436;28;19904;-75
2023/01/24 10:01:55;;;;;;;;;;;10.70;99.90;;;;;;5029732;28;20011;-77
2023/01/24 10:04:32;;;;;;;;;;;10.70;99.90;;;;;;5053415;28;20356;-72
2023/01/24 10:07:03;;;;;;;;;;;10.80;99.90;;;;;;5052874;28;20026;-75
2023/01/24 10:09:38;;;;;;;;;;;10.90;99.90;;;;;;5053307;28;20348;-75
2023/01/24 10:12:16;;;;;;;;;;;11.00;99.90;;;;;;5052839;28;19911;-75
2023/01/24 10:14:56;;;;;;;;;;;11.10;99.90;;;;;;5062143;28;19995;-72
2023/01/24 10:17:22;;;;;;;;;;;11.10;99.90;;;;;;5072852;28;19904;-74
2023/01/24 10:20:01;;;;;;;;;;;11.10;99.90;;;;;;5073071;28;19915;-74
2023/01/24 10:22:31;;;;;;;;;;;11.20;99.90;;;;;;5072584;28;19908;-77
2023/01/24 10:25:18;;;;;;;;;;;11.00;99.90;;;;;;5072555;28;19953;-78
2023/01/24 10:27:46;;;;;;;;;;;11.00;99.90;;;;;;5072283;28;19912;-77
2023/01/24 10:30:17;;;;;;;;;;;11.10;99.90;;;;;;5072524;28;19905;-76
2023/01/24 10:32:44;;;;;;;;;;;11.10;99.90;;;;;;5072631;28;20284;-77
2023/01/24 10:35:13;;;;;;;;;;;11.10;99.90;;;;;;5072648;28;19905;-75
2023/01/24 10:37:41;;;;;;;;;;;11.00;99.90;;;;;;5072488;28;19904;-75
2023/01/24 10:40:16;;;;;;;;;;;10.90;99.90;;;;;;5072719;28;19916;-74
2023/01/24 10:42:43;;;;;;;;;;;11.00;99.90;;;;;;5072240;28;20332;-77
2023/01/24 10:45:19;;;;;;;;;;;10.90;99.90;;;;;;5072471;28;19940;-80
2023/01/24 10:47:48;;;;;;;;;;;10.90;99.90;;;;;;5072984;28;19920;-75
2023/01/24 10:50:15;;;;;;;;;;;10.90;99.90;;;;;;5072329;28;19931;-74
2023/01/24 10:52:42;;;;;;;;;;;11.00;99.90;;;;;;5059097;28;19955;-76
2023/01/24 10:55:27;;;;;;;;;;;11.10;99.90;;;;;;5035197;28;19908;-73
2023/01/24 10:57:54;;;;;;;;;;;11.10;99.90;;;;;;5052449;28;19905;-74
2023/01/24 11:00:34;;;;;;;;;;;11.10;99.90;;;;;;5052381;28;19904;-72
2023/01/24 11:03:01;;;;;;;;;;;11.20;99.90;;;;;;5052486;28;19911;-75
2023/01/24 11:05:43;;;;;;;;;;;11.10;99.90;;;;;;5052409;28;20209;-75
2023/01/24 11:08:46;;;;;;;;;;;11.20;99.90;;;;;;5034290;28;19948;-74
2023/01/24 11:11:22;;;;;;;;;;;11.20;99.90;;;;;;4971311;28;19906;-72
2023/01/24 11:13:48;;;;;;;;;;;11.30;99.90;;;;;;4972405;28;19910;-75
2023/01/24 11:16:17;;;;;;;;;;;11.30;99.90;;;;;;4974156;28;19905;-76
2023/01/24 11:18:47;;;;;;;;;;;11.40;99.90;;;;;;4990631;28;20354;-74
2023/01/24 11:21:16;;;;;;;;;;;11.40;99.90;;;;;;4990204;28;19912;-74
2023/01/24 11:23:42;;;;;;;;;;;11.40;99.90;;;;;;4990274;28;20001;-69
2023/01/24 11:26:22;;;;;;;;;;;11.40;99.90;;;;;;4990407;28;19910;-74
2023/01/24 11:28:55;;;;;;;;;;;11.40;99.90;;;;;;4992455;28;19914;-74
2023/01/24 11:31:27;;;;;;;;;;;11.40;99.90;;;;;;4994373;28;19906;-76
2023/01/24 11:33:58;;;;;;;;;;;11.50;99.90;;;;;;4994374;28;19917;-74
2023/01/24 11:36:32;;;;;;;;;;;11.70;99.90;;;;;;4994020;28;19912;-76
2023/01/24 11:39:02;;;;;;;;;;;11.70;99.90;;;;;;4994438;28;19972;-74
2023/01/24 11:41:35;;;;;;;;;;;11.80;99.90;;;;;;4994149;28;20249;-74
2023/01/24 11:44:14;;;;;;;;;;;11.80;99.90;;;;;;4997367;28;19980;-75
2023/01/24 11:46:48;;;;;;;;;;;11.70;99.90;;;;;;5075512;28;20276;-74
2023/01/24 11:49:13;;;;;;;;;;;11.80;99.90;;;;;;5075630;28;19916;-75
2023/01/24 11:52:18;;;;;;;;;;;11.90;99.90;;;;;;5075148;28;19905;-74
2023/01/24 11:55:02;;;;;;;;;;;11.90;99.90;;;;;;4993548;28;19913;-74
2023/01/24 11:57:39;;;;;;;;;;;11.90;99.90;;;;;;4993739;28;20350;-74
2023/01/24 12:00:27;;;;;;;;;;;12.00;99.90;;;;;;4993813;28;19906;-74
2023/01/24 12:03:08;;;;;;;;;;;12.10;99.90;;;;;;4993328;28;20418;-74
2023/01/24 12:05:40;;;;;;;;;;;12.30;99.90;;;;;;4976667;28;19905;-72
2023/01/24 12:08:13;;;;;;;;;;;12.30;99.90;;;;;;4993727;28;19914;-74
2023/01/24 12:10:47;;;;;;;;;;;12.20;99.90;;;;;;4993866;28;19906;-74
2023/01/24 12:13:22;;;;;;;;;;;12.20;99.90;;;;;;4993148;28;19905;-74
2023/01/24 12:16:11;;;;;;;;;;;12.10;99.90;;;;;;4976806;28;20254;-74
2023/01/24 12:18:55;;;;;;;;;;;12.00;99.90;;;;;;4993475;28;19916;-71
2023/01/24 12:21:21;;;;;;;;;;;12.00;99.90;;;;;;4977375;28;19906;-72
2023/01/24 12:23:54;;;;;;;;;;;12.00;99.90;;;;;;4993637;28;20000;-72
2023/01/24 12:26:24;;;;;;;;;;;12.00;99.90;;;;;;5063676;28;19908;-78
2023/01/24 12:28:53;;;;;;;;;;;12.00;99.90;;;;;;5075472;28;19908;-74
2023/01/24 12:31:40;;;;;;;;;;;12.10;99.90;;;;;;5074992;28;20260;-73
2023/01/24 12:34:29;;;;;;;;;;;12.10;99.90;;;;;;5026331;28;20003;-73
2023/01/24 12:36:58;;;;;;;;;;;12.10;99.90;;;;;;5075025;28;19954;-73
2023/01/24 12:39:30;;;;;;;;;;;12.00;99.90;;;;;;5074672;28;19905;-75
2023/01/24 12:41:59;;;;;;;;;;;11.80;99.90;;;;;;5056697;28;19904;-71
2023/01/24 12:44:31;;;;;;;;;;;11.80;99.90;;;;;;5074930;28;19908;-73
2023/01/24 12:47:02;;;;;;;;;;;11.80;99.90;;;;;;5074875;28;20298;-74
2023/01/24 12:49:48;;;;;;;;;;;11.80;99.90;;;;;;5074438;28;19916;-76
2023/01/24 12:52:39;;;;;;;;;;;11.70;99.90;;;;;;5074339;28;19911;-75
2023/01/24 12:55:08;;;;;;;;;;;11.70;99.90;;;;;;5071743;28;19908;-75
2023/01/24 12:58:08;;;;;;;;;;;11.70;99.90;;;;;;5074749;28;19905;-68
2023/01/24 13:00:49;;;;;;;;;;;11.70;99.90;;;;;;5074781;28;19924;-73
2023/01/24 13:03:26;;;;;;;;;;;11.80;99.90;;;;;;5074178;28;20252;-76
2023/01/24 13:06:01;;;;;;;;;;;11.90;99.90;;;;;;5074455;28;19904;-73
2023/01/24 13:08:34;;;;;;;;;;;12.10;99.90;;;;;;5057621;28;19916;-74
2023/01/24 13:11:03;;;;;;;;;;;12.00;99.90;;;;;;5077345;28;19905;-75
2023/01/24 13:13:33;;;;;;;;;;;11.90;99.90;;;;;;5066424;28;19911;-71
2023/01/24 13:16:14;;;;;;;;;;;11.80;99.90;;;;;;5073935;28;19958;-74
2023/01/24 13:18:49;;;;;;;;;;;11.80;99.90;;;;;;5074866;28;20370;-77
2023/01/24 13:21:15;;;;;;;;;;;11.70;99.90;;;;;;5074601;28;19951;-76
2023/01/24 13:23:53;;;;;;;;;;;11.70;99.90;;;;;;5074613;28;20043;-74
2023/01/24 13:26:39;;;;;;;;;;;11.70;99.90;;;;;;5077161;28;19915;-73
2023/01/24 13:29:14;;;;;;;;;;;11.70;99.90;;;;;;5069005;28;19908;-75
2023/01/24 13:32:03;;;;;;;;;;;11.80;99.90;;;;;;5075124;28;19953;-73
2023/01/24 13:34:33;;;;;;;;;;;11.80;99.90;;;;;;5072366;28;19920;-74
2023/01/24 13:37:00;;;;;;;;;;;11.90;99.90;;;;;;5074767;28;19908;-76
2023/01/24 13:39:25;;;;;;;;;;;11.90;99.90;;;;;;5074632;28;19944;-75
2023/01/24 13:42:00;;;;;;;;;;;11.90;99.90;;;;;;5074087;28;19975;-71
2023/01/24 13:44:27;;;;;;;;;;;11.90;99.90;;;;;;5067521;28;20306;-76
2023/01/24 13:46:56;;;;;;;;;;;12.00;99.90;;;;;;5053912;28;19939;-75
2023/01/24 13:49:28;;;;;;;;;;;12.10;99.90;;;;;;5053950;28;19978;-75
2023/01/24 13:51:56;;;;;;;;;;;11.80;99.90;;;;;;5051494;28;19915;-75
2023/01/24 13:54:36;;;;;;;;;;;11.80;99.90;;;;;;5053596;28;19959;-74
2023/01/24 13:57:21;;;;;;;;;;;11.90;99.90;;;;;;5052157;28;19912;-75
2023/01/24 14:00:10;;;;;;;;;;;11.90;99.90;;;;;;5053982;28;19966;-76
2023/01/24 14:02:59;;;;;;;;;;;12.00;99.90;;;;;;5053427;28;20300;-77
2023/01/24 14:05:28;;;;;;;;;;;11.80;99.90;;;;;;5053731;28;19999;-75
2023/01/24 14:07:54;;;;;;;;;;;11.40;99.90;;;;;;5052911;28;20209;-78
2023/01/24 14:10:33;;;;;;;;;;;11.30;99.90;;;;;;5053610;28;20377;-75
2023/01/24 14:12:59;;;;;;;;;;;11.20;99.90;;;;;;5053513;28;19912;-77
2023/01/24 14:15:29;;;;;;;;;;;11.30;99.90;;;;;;5053437;28;19911;-76
2023/01/24 14:17:55;;;;;;;;;;;11.20;99.90;;;;;;5054223;28;19944;-78
2023/01/24 14:20:23;;;;;;;;;;;11.10;99.90;;;;;;5054041;28;19904;-77
2023/01/24 14:22:52;;;;;;;;;;;11.00;99.90;;;;;;5053717;28;19905;-77
2023/01/24 14:25:25;;;;;;;;;;;11.00;99.90;;;;;;5053987;28;19908;-76
2023/01/24 14:27:55;;;;;;;;;;;10.90;99.90;;;;;;5053364;28;19917;-77
2023/01/24 14:30:29;;;;;;;;;;;10.90;99.90;;;;;;5053326;28;19911;-78
2023/01/24 14:32:57;;;;;;;;;;;10.90;99.90;;;;;;5055004;28;19940;-76
2023/01/24 14:35:27;;;;;;;;;;;10.80;99.90;;;;;;5073707;28;19966;-77
2023/01/24 14:37:52;;;;;;;;;;;10.80;99.90;;;;;;5073564;28;19927;-75
2023/01/24 14:40:22;;;;;;;;;;;10.70;99.90;;;;;;5073346;28;19904;-76
2023/01/24 14:42:49;;;;;;;;;;;10.70;99.90;;;;;;5073194;28;19909;-75
2023/01/24 14:45:16;;;;;;;;;;;10.70;99.90;;;;;;5073335;28;19911;-77
2023/01/24 14:47:46;;;;;;;;;;;10.70;99.90;;;;;;5073501;28;20015;-74
2023/01/24 14:50:18;;;;;;;;;;;10.80;99.90;;;;;;5073313;28;19955;-76
2023/01/24 14:52:44;;;;;;;;;;;10.80;99.90;;;;;;5089015;28;19927;-77
2023/01/24 14:55:13;;;;;;;;;;;10.80;99.90;;;;;;5086636;28;20310;-77
2023/01/24 14:57:38;;;;;;;;;;;10.80;99.90;;;;;;5053114;28;19999;-75
2023/01/24 15:00:11;;;;;;;;;;;10.80;99.90;;;;;;5052830;28;19935;-76
2023/01/24 15:02:38;;;;;;;;;;;10.80;99.90;;;;;;5053506;28;20345;-75
2023/01/24 15:05:21;;;;;;;;;;;10.80;99.90;;;;;;5056922;28;19905;-74
2023/01/24 15:07:47;;;;;;;;;;;10.80;99.90;;;;;;5055563;28;19924;-75
2023/01/24 15:10:13;;;;;;;;;;;10.80;99.90;;;;;;5077307;28;19905;-75